createdAt,value
2023-02-09T00:00:25.199Z,101403.25
2023-02-09T00:02:56.924Z,101397.38
2023-02-09T00:05:28.609Z,101398.22
2023-02-09T00:08:00.295Z,101396.50
2023-02-09T00:10:31.949Z,101388.69
2023-02-09T00:13:21.972Z,101398.47
2023-02-09T00:16:01.596Z,101397.66
2023-02-09T00:18:33.854Z,101396.84
2023-02-09T00:21:09.088Z,101384.94
2023-02-09T00:23:41.394Z,101390.22
2023-02-09T00:26:13.071Z,101387.66
2023-02-09T00:28:48.800Z,101379.25
2023-02-09T00:31:21.388Z,101389.81
2023-02-09T00:33:53.110Z,101387.47
2023-02-09T00:36:24.769Z,101390.03
2023-02-09T00:38:57.293Z,101382.41
2023-02-09T00:41:47.844Z,101385.81
2023-02-09T00:44:19.642Z,101377.22
2023-02-09T00:46:52.297Z,101379.94
2023-02-09T00:49:24.408Z,101389.56
2023-02-09T00:51:56.114Z,101392.09
2023-02-09T00:54:27.817Z,101386.94
2023-02-09T00:57:05.134Z,101384.38
2023-02-09T00:59:40.691Z,101384.38
2023-02-09T01:02:13.671Z,101382.56
2023-02-09T01:04:48.345Z,101381.69
2023-02-09T01:07:20.989Z,101386.81
2023-02-09T01:09:52.658Z,101379.94
2023-02-09T01:12:24.334Z,101375.66
2023-02-09T01:14:56.500Z,101373.06
2023-02-09T01:17:28.895Z,101366.25
2023-02-09T01:20:01.317Z,101366.28
2023-02-09T01:22:34.525Z,101362.00
2023-02-09T01:25:07.808Z,101345.78
2023-02-09T01:27:42.244Z,101342.25
2023-02-09T01:30:14.504Z,101344.00
2023-02-09T01:32:46.223Z,101330.25
2023-02-09T01:35:17.983Z,101317.34
2023-02-09T01:37:49.624Z,101318.09
2023-02-09T01:40:21.301Z,101325.06
2023-02-09T01:42:55.780Z,101318.28
2023-02-09T01:45:43.864Z,101312.25
2023-02-09T01:48:22.210Z,101308.84
2023-02-09T01:51:00.928Z,101307.09
2023-02-09T01:53:33.000Z,101307.25
2023-02-09T01:56:10.213Z,101298.63
2023-02-09T01:58:41.965Z,101286.47
2023-02-09T02:01:14.506Z,101285.69
2023-02-09T02:03:46.672Z,101288.31
2023-02-09T02:06:19.630Z,101279.69
2023-02-09T02:09:04.281Z,101276.22
2023-02-09T02:11:36.454Z,101274.34
2023-02-09T02:14:30.191Z,101268.41
2023-02-09T02:17:21.152Z,101270.09
2023-02-09T02:19:58.752Z,101266.56
2023-02-09T02:23:07.871Z,101264.97
2023-02-09T02:25:56.695Z,101261.59
2023-02-09T02:28:40.009Z,101253.00
2023-02-09T02:31:42.491Z,101263.34
2023-02-09T02:34:16.833Z,101244.38
2023-02-09T02:37:19.934Z,101249.56
2023-02-09T02:40:16.320Z,101249.59
2023-02-09T02:42:55.390Z,101249.56
2023-02-09T02:45:45.741Z,101250.34
2023-02-09T02:48:27.376Z,101247.72
2023-02-09T02:51:06.963Z,101248.59
2023-02-09T02:53:42.381Z,101242.56
2023-02-09T02:56:24.188Z,101240.88
2023-02-09T02:58:59.396Z,101229.63
2023-02-09T03:01:42.134Z,101241.69
2023-02-09T03:04:16.150Z,101242.56
2023-02-09T03:06:47.824Z,101240.00
2023-02-09T03:09:19.530Z,101238.34
2023-02-09T03:11:57.510Z,101242.56
2023-02-09T03:14:43.432Z,101245.03
2023-02-09T03:17:33.637Z,101244.16
2023-02-09T03:20:23.661Z,101245.72
2023-02-09T03:23:02.502Z,101248.31
2023-02-09T03:25:56.171Z,101243.28
2023-02-09T03:28:33.644Z,101235.53
2023-02-09T03:31:06.662Z,101235.53
2023-02-09T03:33:39.756Z,101228.66
2023-02-09T03:36:18.412Z,101231.38
2023-02-09T03:38:50.034Z,101227.22
2023-02-09T03:41:21.708Z,101231.63
2023-02-09T03:44:12.266Z,101222.16
2023-02-09T03:46:44.235Z,101220.34
2023-02-09T03:49:15.886Z,101212.66
2023-02-09T03:51:47.753Z,101219.56
2023-02-09T03:54:19.455Z,101212.72
2023-02-09T03:56:51.134Z,101215.41
2023-02-09T03:59:25.171Z,101216.44
2023-02-09T04:01:58.831Z,101213.84
2023-02-09T04:04:30.572Z,101205.25
2023-02-09T04:07:02.343Z,101208.59
2023-02-09T04:09:34.333Z,101198.47
2023-02-09T04:12:06.251Z,101195.28
2023-02-09T04:14:37.973Z,101200.53
2023-02-09T04:17:09.834Z,101196.97
2023-02-09T04:19:41.517Z,101203.72
2023-02-09T04:22:13.226Z,101194.25
2023-02-09T04:24:48.865Z,101195.25
2023-02-09T04:27:20.584Z,101200.41
2023-02-09T04:29:52.298Z,101196.16
2023-02-09T04:32:23.997Z,101200.53
2023-02-09T04:34:55.693Z,101192.88
2023-02-09T04:37:27.401Z,101191.31
2023-02-09T04:39:59.095Z,101193.91
2023-02-09T04:42:32.370Z,101195.50
2023-02-09T04:45:06.180Z,101192.88
2023-02-09T04:47:37.875Z,101191.94
2023-02-09T04:50:09.827Z,101186.75
2023-02-09T04:52:41.492Z,101184.97
2023-02-09T04:55:13.111Z,101184.03
2023-02-09T04:58:03.169Z,101179.88
2023-02-09T05:00:35.244Z,101179.88
2023-02-09T05:03:07.167Z,101184.09
2023-02-09T05:05:40.626Z,101176.34
2023-02-09T05:08:12.338Z,101181.47
2023-02-09T05:10:44.294Z,101179.66
2023-02-09T05:13:16.128Z,101180.41
2023-02-09T05:15:48.340Z,101181.22
2023-02-09T05:18:20.085Z,101184.69
2023-02-09T05:20:52.423Z,101181.22
2023-02-09T05:23:24.127Z,101175.31
2023-02-09T05:25:56.584Z,101177.19
2023-02-09T05:28:28.319Z,101171.34
2023-02-09T05:31:00.074Z,101167.97
2023-02-09T05:33:31.875Z,101168.03
2023-02-09T05:36:09.146Z,101164.69
2023-02-09T05:38:40.916Z,101167.34
2023-02-09T05:41:36.356Z,101161.28
2023-02-09T05:44:08.087Z,101173.28
2023-02-09T05:46:39.800Z,101172.50
2023-02-09T05:49:11.518Z,101168.25
2023-02-09T05:51:43.196Z,101175.22
2023-02-09T05:54:14.892Z,101170.03
2023-02-09T05:56:46.655Z,101178.47
2023-02-09T05:59:18.451Z,101175.03
2023-02-09T06:01:50.611Z,101169.81
2023-02-09T06:04:22.769Z,101179.19
2023-02-09T06:06:54.704Z,101177.44
2023-02-09T06:09:26.646Z,101185.09
2023-02-09T06:11:58.340Z,101180.72
2023-02-09T06:14:30.004Z,101188.41
2023-02-09T06:17:01.760Z,101189.34
2023-02-09T06:19:33.568Z,101184.09
2023-02-09T06:22:05.753Z,101192.72
2023-02-09T06:24:37.441Z,101185.91
2023-02-09T06:27:09.139Z,101185.81
2023-02-09T06:29:40.998Z,101183.97
2023-02-09T06:32:12.753Z,101191.66
2023-02-09T06:34:46.439Z,101193.28
2023-02-09T06:37:18.114Z,101192.31
2023-02-09T06:39:49.800Z,101190.47
2023-02-09T06:42:21.641Z,101198.13
2023-02-09T06:44:53.405Z,101203.25
2023-02-09T06:47:25.079Z,101203.25
2023-02-09T06:49:56.749Z,101208.41
2023-02-09T06:52:28.816Z,101196.25
2023-02-09T06:55:00.566Z,101199.28
2023-02-09T06:57:33.160Z,101185.13
2023-02-09T07:00:07.821Z,101185.78
2023-02-09T07:02:43.628Z,101179.78
2023-02-09T07:05:16.671Z,101190.13
2023-02-09T07:07:48.382Z,101179.13
2023-02-09T07:10:20.183Z,101186.03
2023-02-09T07:12:51.873Z,101184.94
2023-02-09T07:15:23.573Z,101176.53
2023-02-09T07:17:55.301Z,101178.47
2023-02-09T07:20:26.961Z,101172.47
2023-02-09T07:23:01.218Z,101174.03
2023-02-09T07:25:34.225Z,101170.88
2023-02-09T07:28:05.997Z,101168.91
2023-02-09T07:30:41.081Z,101162.25
2023-02-09T07:33:13.001Z,101167.34
2023-02-09T07:35:45.304Z,101166.16
2023-02-09T07:38:17.050Z,101170.41
2023-02-09T07:40:48.991Z,101158.00
2023-02-09T07:43:20.747Z,101156.59
2023-02-09T07:45:52.513Z,101159.13
2023-02-09T07:48:25.375Z,101154.13
2023-02-09T07:50:57.375Z,101156.06
2023-02-09T07:53:29.732Z,101145.66
2023-02-09T07:56:01.702Z,101157.06
2023-02-09T07:58:33.538Z,101149.06
2023-02-09T08:01:08.274Z,101151.59
2023-02-09T08:03:42.312Z,101152.75
2023-02-09T08:06:30.319Z,101158.16
2023-02-09T08:09:08.833Z,101156.03
2023-02-09T08:11:46.029Z,101151.56
2023-02-09T08:14:26.011Z,101154.72
2023-02-09T08:17:21.595Z,101152.34
2023-02-09T08:20:00.438Z,101153.69
2023-02-09T08:22:35.086Z,101161.47
2023-02-09T08:25:07.814Z,101153.16
2023-02-09T08:27:40.812Z,101152.31
2023-02-09T08:30:14.865Z,101152.75
2023-02-09T08:32:46.672Z,101140.75
2023-02-09T08:35:18.441Z,101137.09
2023-02-09T08:37:50.240Z,101137.69
2023-02-09T08:40:21.951Z,101135.16
2023-02-09T08:42:53.991Z,101143.41
2023-02-09T08:45:25.838Z,101133.59
2023-02-09T08:47:59.603Z,101137.09
2023-02-09T08:50:31.336Z,101131.72
2023-02-09T08:53:06.731Z,101130.06
2023-02-09T08:55:39.233Z,101131.66
2023-02-09T08:58:11.838Z,101136.25
2023-02-09T09:00:43.587Z,101141.03
2023-02-09T09:03:15.452Z,101136.25
2023-02-09T09:05:47.582Z,101138.91
2023-02-09T09:08:19.563Z,101142.22
2023-02-09T09:10:51.323Z,101137.72
2023-02-09T09:13:24.436Z,101144.38
2023-02-09T09:15:56.342Z,101136.50
2023-02-09T09:18:28.059Z,101134.81
2023-02-09T09:20:59.802Z,101135.28
2023-02-09T09:23:31.568Z,101133.00
2023-02-09T09:26:04.058Z,101132.09
2023-02-09T09:28:36.361Z,101135.91
2023-02-09T09:31:16.449Z,101136.59
2023-02-09T09:33:48.269Z,101137.19
2023-02-09T09:36:20.723Z,101138.72
2023-02-09T09:38:52.420Z,101131.78
2023-02-09T09:41:28.718Z,101131.16
2023-02-09T09:44:04.781Z,101126.47
2023-02-09T09:46:41.835Z,101122.00
2023-02-09T09:49:23.937Z,101123.66
2023-02-09T09:52:08.363Z,101124.13
2023-02-09T09:54:41.117Z,101118.56
2023-02-09T09:57:27.438Z,101116.13
2023-02-09T10:00:02.054Z,101120.25
2023-02-09T10:02:37.051Z,101120.72
2023-02-09T10:05:17.852Z,101122.69
2023-02-09T10:07:55.532Z,101119.97
2023-02-09T10:10:38.881Z,101116.19
2023-02-09T10:13:27.160Z,101112.00
2023-02-09T10:15:59.187Z,101105.75
2023-02-09T10:18:33.234Z,101109.81
2023-02-09T10:21:11.997Z,101107.56
2023-02-09T10:23:45.453Z,101103.09
2023-02-09T10:26:25.699Z,101096.91
2023-02-09T10:29:01.182Z,101091.81
2023-02-09T10:31:42.634Z,101095.28
2023-02-09T10:34:18.502Z,101085.53
2023-02-09T10:36:54.766Z,101080.66
2023-02-09T10:39:32.901Z,101074.75
2023-02-09T10:42:27.122Z,101073.22
2023-02-09T10:45:08.235Z,101069.69
2023-02-09T10:47:40.024Z,101072.19
2023-02-09T10:50:11.612Z,101068.03
2023-02-09T10:52:59.820Z,101073.44
2023-02-09T10:55:39.939Z,101071.97
2023-02-09T10:58:11.648Z,101060.75
2023-02-09T11:00:52.697Z,101048.69
2023-02-09T11:03:27.815Z,101042.66
2023-02-09T11:06:15.608Z,101035.00
2023-02-09T11:08:55.383Z,101035.66
2023-02-09T11:11:40.206Z,101028.88
2023-02-09T11:14:15.726Z,101020.34
2023-02-09T11:16:57.990Z,101012.66
2023-02-09T11:19:57.711Z,101017.84
2023-02-09T11:23:03.063Z,101002.63
2023-02-09T11:26:12.071Z,101003.19
2023-02-09T11:29:22.280Z,100988.81
2023-02-09T11:31:56.929Z,100983.50
2023-02-09T11:34:42.099Z,100980.66
2023-02-09T11:37:32.090Z,100980.31
2023-02-09T11:40:38.906Z,100971.13
2023-02-09T11:43:18.986Z,100968.72
2023-02-09T11:45:56.748Z,100962.22
2023-02-09T11:48:36.377Z,100944.84
2023-02-09T11:51:20.989Z,100939.47
2023-02-09T11:54:22.208Z,100942.06
2023-02-09T11:57:01.610Z,100948.66
2023-02-09T11:59:39.580Z,100940.28
2023-02-09T12:02:14.274Z,100947.81
2023-02-09T12:04:58.573Z,100940.53
2023-02-09T12:07:55.387Z,100943.28
2023-02-09T12:10:45.257Z,100941.03
2023-02-09T12:13:44.097Z,100930.41
2023-02-09T12:16:20.765Z,100925.00
2023-02-09T12:18:55.574Z,100938.09
2023-02-09T12:21:34.476Z,100919.00
2023-02-09T12:24:39.017Z,100911.53
2023-02-09T12:27:26.432Z,100907.69
2023-02-09T12:29:59.082Z,100915.47
2023-02-09T12:32:44.795Z,100903.03
2023-02-09T12:35:37.208Z,100898.13
2023-02-09T12:38:15.818Z,100900.06
2023-02-09T12:41:03.855Z,100902.13
2023-02-09T12:43:37.656Z,100904.09
2023-02-09T12:46:22.959Z,100910.84
2023-02-09T12:49:07.595Z,100904.25
2023-02-09T12:51:51.739Z,100899.66
2023-02-09T12:54:26.112Z,100899.41
2023-02-09T12:57:16.113Z,100893.41
2023-02-09T12:59:51.167Z,100894.81
2023-02-09T13:02:24.002Z,100889.94
2023-02-09T13:05:07.916Z,100899.59
2023-02-09T13:07:58.115Z,100886.28
2023-02-09T13:10:41.690Z,100878.25
2023-02-09T13:13:13.364Z,100881.63
2023-02-09T13:15:50.769Z,100882.81
2023-02-09T13:19:04.089Z,100874.91
2023-02-09T13:21:47.872Z,100885.94
2023-02-09T13:24:38.901Z,100882.44
2023-02-09T13:27:19.520Z,100882.22
2023-02-09T13:29:53.609Z,100882.94
2023-02-09T13:32:30.953Z,100881.78
2023-02-09T13:35:29.364Z,100882.50
2023-02-09T13:38:17.653Z,100872.00
2023-02-09T13:40:50.627Z,100876.50
2023-02-09T13:43:33.597Z,100878.13
2023-02-09T13:46:05.535Z,100876.00
2023-02-09T13:48:38.691Z,100888.47
2023-02-09T13:51:19.451Z,100880.16
2023-02-09T13:53:59.236Z,100876.31
2023-02-09T13:56:32.491Z,100868.34
2023-02-09T13:59:04.551Z,100874.00
2023-02-09T14:01:37.341Z,100868.84
2023-02-09T14:04:17.577Z,100868.59
2023-02-09T14:07:03.699Z,100869.81
2023-02-09T14:09:49.396Z,100861.31
2023-02-09T14:12:51.322Z,100863.00
2023-02-09T14:15:48.555Z,100863.25
2023-02-09T14:18:26.419Z,100865.50
2023-02-09T14:21:19.341Z,100861.31
2023-02-09T14:23:58.022Z,100861.78
2023-02-09T14:26:43.156Z,100871.38
2023-02-09T14:29:20.851Z,100864.09
2023-02-09T14:31:56.020Z,100864.81
2023-02-09T14:34:39.266Z,100857.75
2023-02-09T14:37:11.009Z,100859.56
2023-02-09T14:39:56.612Z,100863.34
2023-02-09T14:42:33.494Z,100860.75
2023-02-09T14:45:14.206Z,100864.78
2023-02-09T14:47:47.741Z,100852.56
2023-02-09T14:50:23.445Z,100857.75
2023-02-09T14:53:07.998Z,100851.47
2023-02-09T14:55:44.425Z,100854.19
2023-02-09T14:58:20.689Z,100847.19
2023-02-09T15:00:54.564Z,100840.94
2023-02-09T15:03:26.834Z,100849.50
2023-02-09T15:06:02.385Z,100851.94
2023-02-09T15:08:36.892Z,100841.13
2023-02-09T15:11:34.265Z,100845.97
2023-02-09T15:14:07.877Z,100837.38
2023-02-09T15:16:39.539Z,100830.13
2023-02-09T15:19:16.509Z,100838.66
2023-02-09T15:22:05.219Z,100833.91
2023-02-09T15:24:38.479Z,100842.13
2023-02-09T15:27:24.233Z,100837.06
2023-02-09T15:29:59.832Z,100839.25
2023-02-09T15:32:35.425Z,100842.59
2023-02-09T15:35:07.661Z,100852.75
2023-02-09T15:37:40.333Z,100856.59
2023-02-09T15:40:15.144Z,100856.81
2023-02-09T15:43:06.509Z,100851.75
2023-02-09T15:45:57.107Z,100853.94
2023-02-09T15:48:28.748Z,100843.97
2023-02-09T15:51:00.608Z,100854.75
2023-02-09T15:53:32.343Z,100859.44
2023-02-09T15:56:06.260Z,100846.72
2023-02-09T15:58:47.107Z,100855.84
2023-02-09T16:01:19.261Z,100863.25
2023-02-09T16:03:52.419Z,100864.47
2023-02-09T16:06:24.922Z,100863.47
2023-02-09T16:08:59.815Z,100859.00
2023-02-09T16:11:40.381Z,100864.75
2023-02-09T16:14:23.444Z,100869.06
2023-02-09T16:16:55.231Z,100874.88
2023-02-09T16:19:27.041Z,100878.13
2023-02-09T16:22:04.417Z,100884.59
2023-02-09T16:24:47.173Z,100888.06
2023-02-09T16:27:29.817Z,100886.06
2023-02-09T16:30:01.658Z,100893.63
2023-02-09T16:32:37.903Z,100886.41
2023-02-09T16:35:17.083Z,100901.63
2023-02-09T16:37:51.023Z,100897.09
2023-02-09T16:40:31.079Z,100904.72
2023-02-09T16:43:02.996Z,100904.28
2023-02-09T16:45:36.521Z,100913.25
2023-02-09T16:48:20.876Z,100908.56
2023-02-09T16:50:53.970Z,100913.28
2023-02-09T16:53:37.306Z,100917.44
2023-02-09T16:56:12.947Z,100915.31
2023-02-09T16:58:45.838Z,100909.50
2023-02-09T17:01:22.726Z,100908.13
2023-02-09T17:03:56.617Z,100903.34
2023-02-09T17:06:30.097Z,100903.84
2023-02-09T17:09:01.782Z,100899.97
2023-02-09T17:11:36.250Z,100896.16
2023-02-09T17:14:08.102Z,100899.09
2023-02-09T17:16:43.409Z,100896.91
2023-02-09T17:19:20.891Z,100894.69
2023-02-09T17:21:52.613Z,100891.31
2023-02-09T17:24:24.551Z,100895.94
2023-02-09T17:26:56.232Z,100891.22
2023-02-09T17:29:33.319Z,100884.75
2023-02-09T17:32:13.467Z,100890.47
2023-02-09T17:34:45.272Z,100880.28
2023-02-09T17:37:17.002Z,100877.06
2023-02-09T17:39:48.655Z,100876.59
2023-02-09T17:42:22.804Z,100878.75
2023-02-09T17:44:55.907Z,100870.25
2023-02-09T17:47:29.251Z,100867.78
2023-02-09T17:50:01.271Z,100877.53
2023-02-09T17:52:33.062Z,100877.00
2023-02-09T17:55:05.047Z,100883.22
2023-02-09T17:57:36.775Z,100880.81
2023-02-09T18:00:09.056Z,100880.06
2023-02-09T18:02:41.178Z,100882.97
2023-02-09T18:05:18.910Z,100883.19
2023-02-09T18:07:51.513Z,100893.06
2023-02-09T18:10:23.315Z,100890.78
2023-02-09T18:12:57.219Z,100898.78
2023-02-09T18:15:33.339Z,100905.91
2023-02-09T18:18:05.109Z,100895.78
2023-02-09T18:20:37.118Z,100905.56
2023-02-09T18:23:14.875Z,100910.91
2023-02-09T18:25:47.867Z,100915.34
2023-02-09T18:28:19.907Z,100912.97
2023-02-09T18:30:51.655Z,100901.06
2023-02-09T18:33:23.353Z,100880.91
2023-02-09T18:35:55.180Z,100874.84
2023-02-09T18:38:26.914Z,100874.50
2023-02-09T18:40:58.608Z,100885.19
2023-02-09T18:43:30.330Z,100884.34
2023-02-09T18:46:03.489Z,100870.38
2023-02-09T18:48:35.343Z,100874.63
2023-02-09T18:51:10.301Z,100888.56
2023-02-09T18:53:42.805Z,100898.03
2023-02-09T18:56:19.732Z,100898.88
2023-02-09T18:58:52.067Z,100904.94
2023-02-09T19:01:24.371Z,100913.63
2023-02-09T19:03:56.081Z,100909.28
2023-02-09T19:06:27.971Z,100915.47
2023-02-09T19:08:59.661Z,100924.25
2023-02-09T19:11:31.459Z,100942.59
2023-02-09T19:14:22.100Z,100938.31
2023-02-09T19:16:53.806Z,100949.56
2023-02-09T19:19:26.159Z,100957.34
2023-02-09T19:22:00.163Z,100959.16
2023-02-09T19:24:31.931Z,100960.28
2023-02-09T19:27:06.660Z,100958.72
2023-02-09T19:29:41.277Z,100957.16
2023-02-09T19:32:14.615Z,100961.59
2023-02-09T19:34:47.265Z,100963.34
2023-02-09T19:37:21.027Z,100965.09
2023-02-09T19:39:53.270Z,100970.28
2023-02-09T19:42:24.960Z,100975.50
2023-02-09T19:44:56.961Z,100971.19
2023-02-09T19:47:28.694Z,100980.75
2023-02-09T19:50:00.521Z,100984.25
2023-02-09T19:52:34.870Z,100989.59
2023-02-09T19:55:06.962Z,100990.50
2023-02-09T19:57:38.644Z,100988.09
2023-02-09T20:00:15.760Z,100983.00
2023-02-09T20:02:48.347Z,100987.66
2023-02-09T20:05:20.117Z,100992.13
2023-02-09T20:07:53.698Z,100989.56
2023-02-09T20:10:25.543Z,100998.22
2023-02-09T20:12:57.204Z,100993.16
2023-02-09T20:15:28.893Z,100995.75
2023-02-09T20:18:01.080Z,100982.88
2023-02-09T20:20:32.903Z,100982.97
2023-02-09T20:23:04.624Z,100973.56
2023-02-09T20:25:36.406Z,100975.31
2023-02-09T20:28:08.405Z,100980.63
2023-02-09T20:30:42.415Z,100977.28
2023-02-09T20:33:17.391Z,100971.38
2023-02-09T20:35:49.039Z,100975.78
2023-02-09T20:38:20.772Z,100972.47
2023-02-09T20:40:52.520Z,100966.47
2023-02-09T20:43:42.970Z,100965.81
2023-02-09T20:46:39.488Z,100977.34
2023-02-09T20:49:13.464Z,100972.41
2023-02-09T20:51:46.043Z,100973.38
2023-02-09T20:54:17.713Z,100982.19
2023-02-09T20:56:49.619Z,100982.41
2023-02-09T20:59:21.400Z,100981.56
2023-02-09T21:01:53.146Z,100984.25
2023-02-09T21:04:30.224Z,100988.59
2023-02-09T21:07:04.140Z,100990.59
2023-02-09T21:09:35.846Z,100987.19
2023-02-09T21:12:10.705Z,100994.22
2023-02-09T21:14:45.180Z,100996.81
2023-02-09T21:17:19.161Z,100993.34
2023-02-09T21:19:50.897Z,100996.91
2023-02-09T21:22:22.603Z,100990.00
2023-02-09T21:24:54.313Z,100978.06
2023-02-09T21:27:28.807Z,100973.72
2023-02-09T21:30:00.547Z,100964.31
2023-02-09T21:32:34.935Z,100960.81
2023-02-09T21:35:10.241Z,100942.03
2023-02-09T21:37:42.950Z,100942.16
2023-02-09T21:40:16.198Z,100959.09
2023-02-09T21:42:48.855Z,100971.97
2023-02-09T21:45:20.557Z,100978.78
2023-02-09T21:47:52.371Z,100970.91
2023-02-09T21:50:24.147Z,100964.72
2023-02-09T21:52:55.796Z,100960.47
2023-02-09T21:55:30.759Z,100968.31
2023-02-09T21:58:02.419Z,100972.59
2023-02-09T22:00:34.323Z,100972.50
2023-02-09T22:03:05.978Z,100975.06
2023-02-09T22:05:37.643Z,100974.09
2023-02-09T22:08:09.259Z,100975.84
2023-02-09T22:10:40.944Z,100974.94
2023-02-09T22:13:12.630Z,100977.59
2023-02-09T22:15:44.739Z,100978.56
2023-02-09T22:18:16.416Z,100988.44
2023-02-09T22:20:48.720Z,100983.50
2023-02-09T22:23:20.597Z,100992.13
2023-02-09T22:25:58.464Z,100995.66
2023-02-09T22:28:30.391Z,101001.22
2023-02-09T22:31:14.316Z,101008.31
2023-02-09T22:33:46.359Z,101012.66
2023-02-09T22:36:18.896Z,101005.66
2023-02-09T22:38:51.332Z,101002.97
2023-02-09T22:41:24.064Z,101006.50
2023-02-09T22:44:07.839Z,100995.13
2023-02-09T22:46:41.580Z,100999.34
2023-02-09T22:49:18.573Z,100996.59
2023-02-09T22:51:50.867Z,101006.22
2023-02-09T22:54:22.546Z,101003.69
2023-02-09T22:56:54.376Z,101020.94
2023-02-09T22:59:26.019Z,101025.22
2023-02-09T23:01:57.777Z,101022.59
2023-02-09T23:04:31.924Z,101026.88
2023-02-09T23:07:04.981Z,101028.53
2023-02-09T23:09:36.703Z,101034.59
2023-02-09T23:12:08.430Z,101030.19
2023-02-09T23:14:40.549Z,101026.66
2023-02-09T23:17:12.614Z,101024.97
2023-02-09T23:19:44.911Z,101014.75
2023-02-09T23:22:16.570Z,101027.09
2023-02-09T23:24:48.279Z,101023.66
2023-02-09T23:27:19.919Z,101022.00
2023-02-09T23:29:51.612Z,101030.59
2023-02-09T23:32:23.381Z,101019.31
2023-02-09T23:34:55.121Z,101022.81
2023-02-09T23:37:37.517Z,101030.66
2023-02-09T23:40:10.418Z,101029.00
2023-02-09T23:42:42.126Z,101032.56
2023-02-09T23:45:13.836Z,101036.91
2023-02-09T23:47:45.549Z,101030.03
2023-02-09T23:50:17.696Z,101037.81
2023-02-09T23:52:49.406Z,101035.34
2023-02-09T23:55:21.169Z,101031.09
2023-02-09T23:57:52.929Z,101031.13
